Hoyleton, Illinois
Current Conditions -  °F | °C
As of 8:35 AM on Sunday 23 Nov 2014 (Local Time) from KENL Reporting Station
Overcast Overcast  
Wind Chill: 54°   Ceiling: 1600
Heat Index: 54°   Visibility: 10mi
Dew Point: 46°   Wind: 10mph
Humidity: 76%   Direction: 140°SE
Pressure: 29.75"   Gusts: NA
Location:  38.44°N, 89.27°W
Report Text: KENL 231435Z AUTO 14009KT 10SM BKN016 OVC026 12/08 A2975 RMK AO2 T01200078
Loading
Personal Weather Stations






























Interactive Weather Map New forecast layout! Learn more

10-Day Weather Forecast

Advertisements
Track Severe Weather on mobile